Terminal Aerodrome Forecast
Issued by NWS

Current Version | Previous Version | Graphics & Text | Print | Product List | Glossary On
Versions: 1 2 3 4 5 6 7 8 9 10 11 12 13 14 15 16 17 18 19 20 21 22 23 24
000
FTUS41 KRLX 051100
TAFCKB
TAF
KCKB 051121Z 0512/0612 33006KT 1SM -SN BR OVC004
     FM051600 36004KT 2SM -SN BR OVC008
     FM051800 34005KT 3SM -SN BR OVC010
     FM052100 34006KT P6SM OVC025
     FM060300 00000KT P6SM SCT025=

USA.gov is the U.S. government's official web portal to all federal, state and local government web resources and services.